sensor_id;sensor_type;location;lat;lon;timestamp;P1;durP1;ratioP1;P2;durP2;ratioP2
65315;SDS011;51920;53.952;10.292;2023-01-19T00:02:21;32.47;;;14.00;;
65315;SDS011;51920;53.952;10.292;2023-01-19T00:04:46;30.90;;;13.07;;
65315;SDS011;51920;53.952;10.292;2023-01-19T00:07:11;33.57;;;14.30;;
65315;SDS011;51920;53.952;10.292;2023-01-19T00:09:37;28.73;;;13.17;;
65315;SDS011;51920;53.952;10.292;2023-01-19T00:12:10;32.78;;;14.98;;
65315;SDS011;51920;53.952;10.292;2023-01-19T00:14:35;32.43;;;14.13;;
65315;SDS011;51920;53.952;10.292;2023-01-19T00:17:01;30.50;;;14.32;;
65315;SDS011;51920;53.952;10.292;2023-01-19T00:19:27;32.90;;;14.03;;
65315;SDS011;51920;53.952;10.292;2023-01-19T00:21:53;33.60;;;14.02;;
65315;SDS011;51920;53.952;10.292;2023-01-19T00:24:18;33.35;;;14.10;;
65315;SDS011;51920;53.952;10.292;2023-01-19T00:26:44;27.67;;;13.63;;
65315;SDS011;51920;53.952;10.292;2023-01-19T00:29:09;32.13;;;13.97;;
65315;SDS011;51920;53.952;10.292;2023-01-19T00:31:36;29.63;;;13.55;;
65315;SDS011;51920;53.952;10.292;2023-01-19T00:34:02;30.00;;;13.10;;
65315;SDS011;51920;53.952;10.292;2023-01-19T00:36:28;30.47;;;13.57;;
65315;SDS011;51920;53.952;10.292;2023-01-19T00:38:54;30.48;;;14.00;;
65315;SDS011;51920;53.952;10.292;2023-01-19T00:41:19;31.60;;;13.73;;
65315;SDS011;51920;53.952;10.292;2023-01-19T00:44:04;28.98;;;12.88;;
65315;SDS011;51920;53.952;10.292;2023-01-19T00:46:30;30.47;;;12.97;;
65315;SDS011;51920;53.952;10.292;2023-01-19T00:48:55;30.93;;;13.57;;
65315;SDS011;51920;53.952;10.292;2023-01-19T00:51:20;27.07;;;12.93;;
65315;SDS011;51920;53.952;10.292;2023-01-19T00:53:46;28.63;;;12.85;;
65315;SDS011;51920;53.952;10.292;2023-01-19T00:56:11;29.57;;;12.87;;
65315;SDS011;51920;53.952;10.292;2023-01-19T00:58:36;31.03;;;13.20;;
65315;SDS011;51920;53.952;10.292;2023-01-19T01:01:02;27.73;;;12.50;;
65315;SDS011;51920;53.952;10.292;2023-01-19T01:03:28;24.30;;;12.15;;
65315;SDS011;51920;53.952;10.292;2023-01-19T01:05:54;25.37;;;12.10;;
65315;SDS011;51920;53.952;10.292;2023-01-19T01:08:19;25.30;;;12.23;;
65315;SDS011;51920;53.952;10.292;2023-01-19T01:10:45;24.50;;;11.40;;
65315;SDS011;51920;53.952;10.292;2023-01-19T01:13:10;24.13;;;12.57;;
65315;SDS011;51920;53.952;10.292;2023-01-19T01:15:35;24.93;;;12.00;;
65315;SDS011;51920;53.952;10.292;2023-01-19T01:18:01;25.50;;;12.10;;
65315;SDS011;51920;53.952;10.292;2023-01-19T01:20:26;24.10;;;12.10;;
65315;SDS011;51920;53.952;10.292;2023-01-19T01:22:54;22.55;;;11.20;;
65315;SDS011;51920;53.952;10.292;2023-01-19T01:25:22;24.55;;;11.52;;
65315;SDS011;51920;53.952;10.292;2023-01-19T01:27:48;22.23;;;10.52;;
65315;SDS011;51920;53.952;10.292;2023-01-19T01:30:14;25.40;;;11.90;;
65315;SDS011;51920;53.952;10.292;2023-01-19T01:32:40;22.73;;;11.20;;
65315;SDS011;51920;53.952;10.292;2023-01-19T01:35:05;24.17;;;11.30;;
65315;SDS011;51920;53.952;10.292;2023-01-19T01:37:33;25.02;;;11.18;;
65315;SDS011;51920;53.952;10.292;2023-01-19T01:39:59;22.87;;;11.30;;
65315;SDS011;51920;53.952;10.292;2023-01-19T01:42:25;25.23;;;11.53;;
65315;SDS011;51920;53.952;10.292;2023-01-19T01:44:54;24.33;;;11.57;;
65315;SDS011;51920;53.952;10.292;2023-01-19T01:47:25;25.27;;;11.52;;
65315;SDS011;51920;53.952;10.292;2023-01-19T01:50:03;27.05;;;11.63;;
65315;SDS011;51920;53.952;10.292;2023-01-19T01:52:33;27.13;;;11.95;;
65315;SDS011;51920;53.952;10.292;2023-01-19T01:55:01;24.10;;;11.57;;
65315;SDS011;51920;53.952;10.292;2023-01-19T01:57:30;24.73;;;11.23;;
65315;SDS011;51920;53.952;10.292;2023-01-19T01:59:58;24.88;;;12.00;;
65315;SDS011;51920;53.952;10.292;2023-01-19T02:02:24;25.33;;;12.23;;
65315;SDS011;51920;53.952;10.292;2023-01-19T02:05:12;26.25;;;11.23;;
65315;SDS011;51920;53.952;10.292;2023-01-19T02:10:28;22.50;;;11.27;;
65315;SDS011;51920;53.952;10.292;2023-01-19T02:13:12;24.27;;;12.18;;
65315;SDS011;51920;53.952;10.292;2023-01-19T02:15:51;26.30;;;11.80;;
65315;SDS011;51920;53.952;10.292;2023-01-19T02:18:19;27.52;;;12.43;;
65315;SDS011;51920;53.952;10.292;2023-01-19T02:20:57;23.92;;;11.77;;
65315;SDS011;51920;53.952;10.292;2023-01-19T02:23:31;25.00;;;11.85;;
65315;SDS011;51920;53.952;10.292;2023-01-19T02:26:02;27.92;;;12.95;;
65315;SDS011;51920;53.952;10.292;2023-01-19T02:28:28;23.90;;;11.50;;
65315;SDS011;51920;53.952;10.292;2023-01-19T02:30:55;26.63;;;11.77;;
65315;SDS011;51920;53.952;10.292;2023-01-19T02:33:20;24.07;;;11.87;;
65315;SDS011;51920;53.952;10.292;2023-01-19T02:35:46;27.93;;;12.17;;
65315;SDS011;51920;53.952;10.292;2023-01-19T02:38:14;25.60;;;12.20;;
65315;SDS011;51920;53.952;10.292;2023-01-19T02:40:42;24.20;;;12.10;;
65315;SDS011;51920;53.952;10.292;2023-01-19T02:43:09;25.25;;;12.13;;
65315;SDS011;51920;53.952;10.292;2023-01-19T02:45:35;24.07;;;12.80;;
65315;SDS011;51920;53.952;10.292;2023-01-19T02:48:01;25.02;;;12.23;;
65315;SDS011;51920;53.952;10.292;2023-01-19T02:53:20;24.23;;;11.63;;
65315;SDS011;51920;53.952;10.292;2023-01-19T02:58:57;24.27;;;10.97;;
65315;SDS011;51920;53.952;10.292;2023-01-19T03:01:36;27.50;;;11.70;;
65315;SDS011;51920;53.952;10.292;2023-01-19T03:04:29;24.73;;;12.27;;
65315;SDS011;51920;53.952;10.292;2023-01-19T03:07:19;23.92;;;11.30;;
65315;SDS011;51920;53.952;10.292;2023-01-19T03:09:57;24.10;;;11.38;;
65315;SDS011;51920;53.952;10.292;2023-01-19T03:12:36;24.13;;;11.80;;
65315;SDS011;51920;53.952;10.292;2023-01-19T03:15:16;24.27;;;11.45;;
65315;SDS011;51920;53.952;10.292;2023-01-19T03:17:47;26.40;;;11.98;;
65315;SDS011;51920;53.952;10.292;2023-01-19T03:20:14;27.55;;;12.23;;
65315;SDS011;51920;53.952;10.292;2023-01-19T03:22:42;23.80;;;11.57;;
65315;SDS011;51920;53.952;10.292;2023-01-19T03:25:09;23.37;;;11.10;;
65315;SDS011;51920;53.952;10.292;2023-01-19T03:27:37;24.60;;;11.77;;
65315;SDS011;51920;53.952;10.292;2023-01-19T03:30:14;24.60;;;11.95;;
65315;SDS011;51920;53.952;10.292;2023-01-19T03:32:50;26.25;;;11.57;;
65315;SDS011;51920;53.952;10.292;2023-01-19T03:35:19;25.15;;;11.98;;
65315;SDS011;51920;53.952;10.292;2023-01-19T03:37:46;24.30;;;11.37;;
65315;SDS011;51920;53.952;10.292;2023-01-19T03:40:14;24.75;;;10.88;;
65315;SDS011;51920;53.952;10.292;2023-01-19T03:42:40;24.48;;;11.63;;
65315;SDS011;51920;53.952;10.292;2023-01-19T03:45:06;25.75;;;11.98;;
65315;SDS011;51920;53.952;10.292;2023-01-19T03:47:33;27.63;;;11.80;;
65315;SDS011;51920;53.952;10.292;2023-01-19T03:49:59;24.27;;;11.55;;
65315;SDS011;51920;53.952;10.292;2023-01-19T03:52:28;23.27;;;11.77;;
65315;SDS011;51920;53.952;10.292;2023-01-19T03:54:56;24.85;;;11.50;;
65315;SDS011;51920;53.952;10.292;2023-01-19T03:57:22;24.50;;;11.67;;
65315;SDS011;51920;53.952;10.292;2023-01-19T03:59:47;23.38;;;12.38;;
65315;SDS011;51920;53.952;10.292;2023-01-19T04:02:13;23.33;;;12.00;;
65315;SDS011;51920;53.952;10.292;2023-01-19T04:04:39;21.80;;;11.18;;
65315;SDS011;51920;53.952;10.292;2023-01-19T04:07:04;22.77;;;11.30;;
65315;SDS011;51920;53.952;10.292;2023-01-19T04:09:30;23.98;;;11.35;;
65315;SDS011;51920;53.952;10.292;2023-01-19T04:11:56;24.53;;;11.67;;
65315;SDS011;51920;53.952;10.292;2023-01-19T04:14:21;22.90;;;11.60;;
65315;SDS011;51920;53.952;10.292;2023-01-19T04:16:47;22.98;;;11.32;;
65315;SDS011;51920;53.952;10.292;2023-01-19T04:19:12;22.43;;;11.03;;
65315;SDS011;51920;53.952;10.292;2023-01-19T04:21:38;23.47;;;12.10;;
65315;SDS011;51920;53.952;10.292;2023-01-19T04:24:03;23.45;;;11.60;;
65315;SDS011;51920;53.952;10.292;2023-01-19T04:26:29;23.70;;;11.83;;
65315;SDS011;51920;53.952;10.292;2023-01-19T04:28:54;24.20;;;11.50;;
65315;SDS011;51920;53.952;10.292;2023-01-19T04:31:20;24.07;;;11.07;;
65315;SDS011;51920;53.952;10.292;2023-01-19T04:33:46;20.75;;;10.95;;
65315;SDS011;51920;53.952;10.292;2023-01-19T04:36:11;26.07;;;12.17;;
65315;SDS011;51920;53.952;10.292;2023-01-19T04:38:37;23.33;;;12.23;;
65315;SDS011;51920;53.952;10.292;2023-01-19T04:41:02;22.17;;;10.57;;
65315;SDS011;51920;53.952;10.292;2023-01-19T04:43:28;28.03;;;11.57;;
65315;SDS011;51920;53.952;10.292;2023-01-19T04:45:53;24.20;;;11.57;;
65315;SDS011;51920;53.952;10.292;2023-01-19T04:48:18;24.07;;;11.17;;
65315;SDS011;51920;53.952;10.292;2023-01-19T04:50:44;23.70;;;11.93;;
65315;SDS011;51920;53.952;10.292;2023-01-19T04:53:10;23.77;;;11.75;;
65315;SDS011;51920;53.952;10.292;2023-01-19T04:55:37;22.90;;;11.63;;
65315;SDS011;51920;53.952;10.292;2023-01-19T04:58:03;20.67;;;10.60;;
65315;SDS011;51920;53.952;10.292;2023-01-19T05:00:28;24.95;;;11.57;;
65315;SDS011;51920;53.952;10.292;2023-01-19T05:02:54;23.83;;;12.10;;
65315;SDS011;51920;53.952;10.292;2023-01-19T05:05:19;26.17;;;11.60;;
65315;SDS011;51920;53.952;10.292;2023-01-19T05:07:45;27.63;;;12.15;;
65315;SDS011;51920;53.952;10.292;2023-01-19T05:10:11;27.17;;;11.77;;
65315;SDS011;51920;53.952;10.292;2023-01-19T05:12:36;28.45;;;12.43;;
65315;SDS011;51920;53.952;10.292;2023-01-19T05:15:02;28.33;;;12.33;;
65315;SDS011;51920;53.952;10.292;2023-01-19T05:17:28;26.05;;;12.10;;
65315;SDS011;51920;53.952;10.292;2023-01-19T05:19:54;26.33;;;12.27;;
65315;SDS011;51920;53.952;10.292;2023-01-19T05:22:19;27.07;;;12.13;;
65315;SDS011;51920;53.952;10.292;2023-01-19T05:24:44;25.67;;;12.60;;
65315;SDS011;51920;53.952;10.292;2023-01-19T05:27:10;23.30;;;11.90;;
65315;SDS011;51920;53.952;10.292;2023-01-19T05:29:35;28.00;;;12.65;;
65315;SDS011;51920;53.952;10.292;2023-01-19T05:32:01;26.33;;;12.80;;
65315;SDS011;51920;53.952;10.292;2023-01-19T05:34:26;23.70;;;11.73;;
65315;SDS011;51920;53.952;10.292;2023-01-19T05:36:52;28.50;;;12.47;;
65315;SDS011;51920;53.952;10.292;2023-01-19T05:39:17;27.10;;;12.73;;
65315;SDS011;51920;53.952;10.292;2023-01-19T05:41:43;26.40;;;12.10;;
65315;SDS011;51920;53.952;10.292;2023-01-19T05:44:11;29.80;;;12.38;;
65315;SDS011;51920;53.952;10.292;2023-01-19T05:46:37;24.52;;;12.38;;
65315;SDS011;51920;53.952;10.292;2023-01-19T05:49:04;27.60;;;12.17;;
65315;SDS011;51920;53.952;10.292;2023-01-19T05:51:31;24.98;;;12.10;;
65315;SDS011;51920;53.952;10.292;2023-01-19T05:54:02;29.92;;;13.18;;
65315;SDS011;51920;53.952;10.292;2023-01-19T05:56:28;24.98;;;12.18;;
65315;SDS011;51920;53.952;10.292;2023-01-19T05:58:54;25.67;;;12.50;;
65315;SDS011;51920;53.952;10.292;2023-01-19T06:01:20;25.40;;;12.35;;
65315;SDS011;51920;53.952;10.292;2023-01-19T06:03:45;25.93;;;12.43;;
65315;SDS011;51920;53.952;10.292;2023-01-19T06:06:12;25.90;;;12.52;;
65315;SDS011;51920;53.952;10.292;2023-01-19T06:08:39;25.97;;;12.23;;
65315;SDS011;51920;53.952;10.292;2023-01-19T06:11:05;28.40;;;12.57;;
65315;SDS011;51920;53.952;10.292;2023-01-19T06:13:31;26.13;;;12.77;;
65315;SDS011;51920;53.952;10.292;2023-01-19T06:15:57;26.83;;;12.67;;
65315;SDS011;51920;53.952;10.292;2023-01-19T06:18:24;24.83;;;11.82;;
65315;SDS011;51920;53.952;10.292;2023-01-19T06:20:49;27.73;;;13.17;;
65315;SDS011;51920;53.952;10.292;2023-01-19T06:23:16;28.27;;;12.82;;
65315;SDS011;51920;53.952;10.292;2023-01-19T06:25:42;29.33;;;13.47;;
65315;SDS011;51920;53.952;10.292;2023-01-19T06:28:07;28.60;;;12.47;;
65315;SDS011;51920;53.952;10.292;2023-01-19T06:30:32;26.00;;;12.50;;
65315;SDS011;51920;53.952;10.292;2023-01-19T06:32:58;27.40;;;12.83;;
65315;SDS011;51920;53.952;10.292;2023-01-19T06:35:23;28.57;;;12.73;;
65315;SDS011;51920;53.952;10.292;2023-01-19T06:37:48;26.67;;;12.10;;
65315;SDS011;51920;53.952;10.292;2023-01-19T06:40:14;29.90;;;14.03;;
65315;SDS011;51920;53.952;10.292;2023-01-19T06:42:39;25.77;;;12.47;;
65315;SDS011;51920;53.952;10.292;2023-01-19T06:45:04;29.93;;;13.80;;
65315;SDS011;51920;53.952;10.292;2023-01-19T06:47:30;28.42;;;14.00;;
65315;SDS011;51920;53.952;10.292;2023-01-19T06:49:57;29.23;;;14.05;;
65315;SDS011;51920;53.952;10.292;2023-01-19T06:52:23;30.17;;;13.63;;
65315;SDS011;51920;53.952;10.292;2023-01-19T06:54:48;29.77;;;13.43;;
65315;SDS011;51920;53.952;10.292;2023-01-19T06:57:13;27.37;;;13.40;;
65315;SDS011;51920;53.952;10.292;2023-01-19T06:59:39;29.05;;;13.60;;
65315;SDS011;51920;53.952;10.292;2023-01-19T07:02:04;30.03;;;14.53;;
65315;SDS011;51920;53.952;10.292;2023-01-19T07:04:30;28.47;;;13.20;;
65315;SDS011;51920;53.952;10.292;2023-01-19T07:06:55;30.15;;;13.70;;
65315;SDS011;51920;53.952;10.292;2023-01-19T07:09:21;28.33;;;13.10;;
65315;SDS011;51920;53.952;10.292;2023-01-19T07:11:46;29.13;;;14.07;;
65315;SDS011;51920;53.952;10.292;2023-01-19T07:14:13;30.88;;;14.07;;
65315;SDS011;51920;53.952;10.292;2023-01-19T07:16:38;32.27;;;13.90;;
65315;SDS011;51920;53.952;10.292;2023-01-19T07:19:04;31.10;;;13.93;;
65315;SDS011;51920;53.952;10.292;2023-01-19T07:21:29;30.52;;;13.90;;
65315;SDS011;51920;53.952;10.292;2023-01-19T07:23:54;29.83;;;13.53;;
65315;SDS011;51920;53.952;10.292;2023-01-19T07:26:20;33.13;;;14.10;;
65315;SDS011;51920;53.952;10.292;2023-01-19T07:28:46;28.45;;;13.60;;
65315;SDS011;51920;53.952;10.292;2023-01-19T07:31:12;30.00;;;13.13;;
65315;SDS011;51920;53.952;10.292;2023-01-19T07:33:38;28.23;;;13.98;;
65315;SDS011;51920;53.952;10.292;2023-01-19T07:36:03;27.97;;;13.77;;
65315;SDS011;51920;53.952;10.292;2023-01-19T07:38:29;31.42;;;13.38;;
65315;SDS011;51920;53.952;10.292;2023-01-19T07:41:01;31.10;;;13.87;;
65315;SDS011;51920;53.952;10.292;2023-01-19T07:43:31;29.30;;;13.95;;
65315;SDS011;51920;53.952;10.292;2023-01-19T07:45:57;31.57;;;13.73;;
65315;SDS011;51920;53.952;10.292;2023-01-19T07:48:24;26.83;;;12.95;;
65315;SDS011;51920;53.952;10.292;2023-01-19T07:50:50;32.65;;;13.77;;
65315;SDS011;51920;53.952;10.292;2023-01-19T07:53:15;28.10;;;13.50;;
65315;SDS011;51920;53.952;10.292;2023-01-19T07:55:41;30.33;;;13.47;;
65315;SDS011;51920;53.952;10.292;2023-01-19T07:58:06;28.23;;;13.18;;
65315;SDS011;51920;53.952;10.292;2023-01-19T08:00:36;28.87;;;13.43;;
65315;SDS011;51920;53.952;10.292;2023-01-19T08:03:03;29.38;;;13.35;;
65315;SDS011;51920;53.952;10.292;2023-01-19T08:05:29;27.63;;;13.18;;
65315;SDS011;51920;53.952;10.292;2023-01-19T08:07:56;32.28;;;14.60;;
65315;SDS011;51920;53.952;10.292;2023-01-19T08:10:26;33.33;;;13.53;;
65315;SDS011;51920;53.952;10.292;2023-01-19T08:12:54;31.02;;;13.80;;
65315;SDS011;51920;53.952;10.292;2023-01-19T08:15:21;34.83;;;15.43;;
65315;SDS011;51920;53.952;10.292;2023-01-19T08:17:58;32.50;;;13.63;;
65315;SDS011;51920;53.952;10.292;2023-01-19T08:20:29;29.25;;;13.90;;
65315;SDS011;51920;53.952;10.292;2023-01-19T08:22:55;27.87;;;14.13;;
65315;SDS011;51920;53.952;10.292;2023-01-19T08:25:44;33.17;;;14.40;;
65315;SDS011;51920;53.952;10.292;2023-01-19T08:28:10;30.38;;;13.30;;
65315;SDS011;51920;53.952;10.292;2023-01-19T08:30:37;31.88;;;14.80;;
65315;SDS011;51920;53.952;10.292;2023-01-19T08:33:04;31.67;;;14.70;;
65315;SDS011;51920;53.952;10.292;2023-01-19T08:35:36;31.83;;;14.02;;
65315;SDS011;51920;53.952;10.292;2023-01-19T08:38:04;34.40;;;15.02;;
65315;SDS011;51920;53.952;10.292;2023-01-19T08:40:31;30.35;;;14.68;;
65315;SDS011;51920;53.952;10.292;2023-01-19T08:43:05;32.05;;;14.40;;
65315;SDS011;51920;53.952;10.292;2023-01-19T08:45:36;31.73;;;15.10;;
65315;SDS011;51920;53.952;10.292;2023-01-19T08:48:05;34.97;;;14.18;;
65315;SDS011;51920;53.952;10.292;2023-01-19T08:50:31;30.17;;;14.35;;
65315;SDS011;51920;53.952;10.292;2023-01-19T08:52:59;31.73;;;13.80;;
65315;SDS011;51920;53.952;10.292;2023-01-19T08:55:26;32.25;;;14.25;;
65315;SDS011;51920;53.952;10.292;2023-01-19T08:57:52;30.65;;;13.82;;
65315;SDS011;51920;53.952;10.292;2023-01-19T09:00:19;32.00;;;13.35;;
65315;SDS011;51920;53.952;10.292;2023-01-19T09:02:47;31.63;;;13.90;;
65315;SDS011;51920;53.952;10.292;2023-01-19T09:05:13;32.87;;;14.03;;
65315;SDS011;51920;53.952;10.292;2023-01-19T09:07:38;30.47;;;14.00;;
65315;SDS011;51920;53.952;10.292;2023-01-19T09:10:04;31.20;;;14.00;;
65315;SDS011;51920;53.952;10.292;2023-01-19T09:12:30;31.02;;;13.73;;
65315;SDS011;51920;53.952;10.292;2023-01-19T09:14:56;33.05;;;14.23;;
65315;SDS011;51920;53.952;10.292;2023-01-19T09:17:21;31.37;;;14.73;;
65315;SDS011;51920;53.952;10.292;2023-01-19T09:19:47;35.03;;;14.52;;
65315;SDS011;51920;53.952;10.292;2023-01-19T09:22:12;34.50;;;14.00;;
65315;SDS011;51920;53.952;10.292;2023-01-19T09:24:38;32.17;;;14.20;;
65315;SDS011;51920;53.952;10.292;2023-01-19T09:27:03;32.53;;;13.63;;
65315;SDS011;51920;53.952;10.292;2023-01-19T09:29:29;33.47;;;15.20;;
65315;SDS011;51920;53.952;10.292;2023-01-19T09:31:54;32.03;;;14.00;;
65315;SDS011;51920;53.952;10.292;2023-01-19T09:34:20;34.75;;;14.52;;
65315;SDS011;51920;53.952;10.292;2023-01-19T09:36:47;36.10;;;14.70;;
65315;SDS011;51920;53.952;10.292;2023-01-19T09:39:12;33.37;;;14.77;;
65315;SDS011;51920;53.952;10.292;2023-01-19T09:41:38;36.30;;;15.03;;
65315;SDS011;51920;53.952;10.292;2023-01-19T09:44:13;31.92;;;14.18;;
65315;SDS011;51920;53.952;10.292;2023-01-19T09:46:44;33.60;;;13.32;;
65315;SDS011;51920;53.952;10.292;2023-01-19T09:49:16;33.23;;;13.57;;
65315;SDS011;51920;53.952;10.292;2023-01-19T09:51:46;35.58;;;14.30;;
65315;SDS011;51920;53.952;10.292;2023-01-19T09:54:14;31.13;;;14.07;;
65315;SDS011;51920;53.952;10.292;2023-01-19T09:56:41;32.28;;;13.73;;
65315;SDS011;51920;53.952;10.292;2023-01-19T09:59:14;33.10;;;14.73;;
65315;SDS011;51920;53.952;10.292;2023-01-19T10:04:28;35.63;;;15.27;;
65315;SDS011;51920;53.952;10.292;2023-01-19T10:07:31;32.13;;;14.13;;
65315;SDS011;51920;53.952;10.292;2023-01-19T10:15:28;33.63;;;13.53;;
65315;SDS011;51920;53.952;10.292;2023-01-19T10:20:38;32.58;;;13.85;;
65315;SDS011;51920;53.952;10.292;2023-01-19T10:23:17;33.07;;;14.40;;
65315;SDS011;51920;53.952;10.292;2023-01-19T10:25:44;28.70;;;12.50;;
65315;SDS011;51920;53.952;10.292;2023-01-19T10:28:10;33.33;;;14.82;;
65315;SDS011;51920;53.952;10.292;2023-01-19T10:30:38;34.55;;;14.75;;
65315;SDS011;51920;53.952;10.292;2023-01-19T10:33:10;32.22;;;13.95;;
65315;SDS011;51920;53.952;10.292;2023-01-19T10:35:36;32.03;;;14.07;;
65315;SDS011;51920;53.952;10.292;2023-01-19T10:38:02;31.00;;;14.27;;
65315;SDS011;51920;53.952;10.292;2023-01-19T10:40:30;33.90;;;14.73;;
65315;SDS011;51920;53.952;10.292;2023-01-19T10:42:59;31.33;;;14.57;;
65315;SDS011;51920;53.952;10.292;2023-01-19T10:45:26;31.00;;;14.20;;
65315;SDS011;51920;53.952;10.292;2023-01-19T10:47:54;32.90;;;13.68;;
65315;SDS011;51920;53.952;10.292;2023-01-19T10:50:28;36.03;;;14.27;;
65315;SDS011;51920;53.952;10.292;2023-01-19T10:52:57;29.90;;;13.30;;
65315;SDS011;51920;53.952;10.292;2023-01-19T10:57:51;30.52;;;13.93;;
65315;SDS011;51920;53.952;10.292;2023-01-19T11:02:54;30.03;;;13.10;;
65315;SDS011;51920;53.952;10.292;2023-01-19T11:05:21;29.92;;;13.70;;
65315;SDS011;51920;53.952;10.292;2023-01-19T11:07:48;32.17;;;14.03;;
65315;SDS011;51920;53.952;10.292;2023-01-19T11:12:47;30.13;;;12.90;;
65315;SDS011;51920;53.952;10.292;2023-01-19T11:15:34;30.73;;;14.03;;
65315;SDS011;51920;53.952;10.292;2023-01-19T11:18:03;30.95;;;13.98;;
65315;SDS011;51920;53.952;10.292;2023-01-19T11:25:38;33.60;;;13.50;;
65315;SDS011;51920;53.952;10.292;2023-01-19T11:28:04;37.33;;;14.55;;
65315;SDS011;51920;53.952;10.292;2023-01-19T11:30:30;29.73;;;13.73;;
65315;SDS011;51920;53.952;10.292;2023-01-19T11:32:55;30.58;;;13.38;;
65315;SDS011;51920;53.952;10.292;2023-01-19T11:35:35;29.33;;;13.30;;
65315;SDS011;51920;53.952;10.292;2023-01-19T11:38:10;30.83;;;13.55;;
65315;SDS011;51920;53.952;10.292;2023-01-19T11:40:38;27.93;;;12.87;;
65315;SDS011;51920;53.952;10.292;2023-01-19T11:43:08;28.35;;;13.20;;
65315;SDS011;51920;53.952;10.292;2023-01-19T11:45:36;30.10;;;13.20;;
65315;SDS011;51920;53.952;10.292;2023-01-19T11:48:03;28.38;;;12.77;;
65315;SDS011;51920;53.952;10.292;2023-01-19T11:50:32;29.00;;;13.23;;
65315;SDS011;51920;53.952;10.292;2023-01-19T11:56:01;29.92;;;12.75;;
65315;SDS011;51920;53.952;10.292;2023-01-19T11:58:39;29.42;;;13.73;;
65315;SDS011;51920;53.952;10.292;2023-01-19T12:03:42;33.17;;;14.03;;
65315;SDS011;51920;53.952;10.292;2023-01-19T12:06:13;28.90;;;13.13;;
65315;SDS011;51920;53.952;10.292;2023-01-19T12:08:43;32.08;;;14.45;;
65315;SDS011;51920;53.952;10.292;2023-01-19T12:11:15;31.48;;;12.82;;
65315;SDS011;51920;53.952;10.292;2023-01-19T12:13:44;31.58;;;12.95;;
65315;SDS011;51920;53.952;10.292;2023-01-19T12:16:18;30.43;;;12.97;;
65315;SDS011;51920;53.952;10.292;2023-01-19T12:18:55;27.70;;;12.65;;
65315;SDS011;51920;53.952;10.292;2023-01-19T12:21:24;28.70;;;13.27;;
65315;SDS011;51920;53.952;10.292;2023-01-19T12:26:35;29.10;;;13.57;;
65315;SDS011;51920;53.952;10.292;2023-01-19T12:29:10;29.10;;;13.45;;
65315;SDS011;51920;53.952;10.292;2023-01-19T12:31:37;28.20;;;13.40;;
65315;SDS011;51920;53.952;10.292;2023-01-19T12:36:56;29.77;;;13.63;;
65315;SDS011;51920;53.952;10.292;2023-01-19T12:39:27;30.10;;;13.23;;
65315;SDS011;51920;53.952;10.292;2023-01-19T12:42:10;31.50;;;13.02;;
65315;SDS011;51920;53.952;10.292;2023-01-19T12:44:37;28.35;;;12.90;;
65315;SDS011;51920;53.952;10.292;2023-01-19T13:00:26;29.80;;;12.73;;
65315;SDS011;51920;53.952;10.292;2023-01-19T13:02:50;27.00;;;11.83;;
65315;SDS011;51920;53.952;10.292;2023-01-19T13:05:21;27.17;;;11.65;;
65315;SDS011;51920;53.952;10.292;2023-01-19T13:15:46;28.03;;;12.20;;
65315;SDS011;51920;53.952;10.292;2023-01-19T13:18:19;26.95;;;12.27;;
65315;SDS011;51920;53.952;10.292;2023-01-19T13:20:50;28.47;;;11.90;;
65315;SDS011;51920;53.952;10.292;2023-01-19T13:23:28;26.00;;;11.20;;
65315;SDS011;51920;53.952;10.292;2023-01-19T13:26:17;27.77;;;12.55;;
65315;SDS011;51920;53.952;10.292;2023-01-19T13:28:44;24.88;;;11.55;;
65315;SDS011;51920;53.952;10.292;2023-01-19T13:31:13;25.42;;;11.35;;
65315;SDS011;51920;53.952;10.292;2023-01-19T13:33:43;23.77;;;11.10;;
65315;SDS011;51920;53.952;10.292;2023-01-19T13:36:19;28.90;;;11.40;;
65315;SDS011;51920;53.952;10.292;2023-01-19T13:39:16;24.98;;;10.98;;
65315;SDS011;51920;53.952;10.292;2023-01-19T13:41:53;25.63;;;10.80;;
65315;SDS011;51920;53.952;10.292;2023-01-19T13:44:28;23.55;;;10.70;;
65315;SDS011;51920;53.952;10.292;2023-01-19T13:46:57;24.00;;;10.30;;
65315;SDS011;51920;53.952;10.292;2023-01-19T13:49:26;25.88;;;10.20;;
65315;SDS011;51920;53.952;10.292;2023-01-19T13:52:05;23.65;;;10.68;;
65315;SDS011;51920;53.952;10.292;2023-01-19T13:54:50;22.70;;;10.27;;
65315;SDS011;51920;53.952;10.292;2023-01-19T13:57:26;25.50;;;11.00;;
65315;SDS011;51920;53.952;10.292;2023-01-19T14:02:40;24.35;;;10.50;;
65315;SDS011;51920;53.952;10.292;2023-01-19T14:08:13;27.38;;;11.25;;
65315;SDS011;51920;53.952;10.292;2023-01-19T14:10:41;26.83;;;10.90;;
65315;SDS011;51920;53.952;10.292;2023-01-19T14:15:43;22.27;;;9.65;;
65315;SDS011;51920;53.952;10.292;2023-01-19T14:18:11;25.48;;;10.40;;
65315;SDS011;51920;53.952;10.292;2023-01-19T14:32:11;20.05;;;8.93;;
65315;SDS011;51920;53.952;10.292;2023-01-19T14:37:17;20.90;;;10.00;;
65315;SDS011;51920;53.952;10.292;2023-01-19T14:40:00;19.00;;;8.90;;
65315;SDS011;51920;53.952;10.292;2023-01-19T14:42:33;19.77;;;8.90;;
65315;SDS011;51920;53.952;10.292;2023-01-19T14:45:03;21.88;;;9.07;;
65315;SDS011;51920;53.952;10.292;2023-01-19T14:47:33;18.58;;;8.60;;
65315;SDS011;51920;53.952;10.292;2023-01-19T14:50:04;18.02;;;8.75;;
65315;SDS011;51920;53.952;10.292;2023-01-19T14:52:35;18.30;;;8.70;;
65315;SDS011;51920;53.952;10.292;2023-01-19T14:55:03;18.20;;;8.55;;
65315;SDS011;51920;53.952;10.292;2023-01-19T14:57:34;19.88;;;8.32;;
65315;SDS011;51920;53.952;10.292;2023-01-19T15:00:05;16.48;;;7.88;;
65315;SDS011;51920;53.952;10.292;2023-01-19T15:02:36;20.13;;;8.05;;
65315;SDS011;51920;53.952;10.292;2023-01-19T15:05:01;16.90;;;7.70;;
65315;SDS011;51920;53.952;10.292;2023-01-19T15:07:27;17.73;;;7.33;;
65315;SDS011;51920;53.952;10.292;2023-01-19T15:09:52;19.73;;;7.77;;
65315;SDS011;51920;53.952;10.292;2023-01-19T15:12:18;18.70;;;8.00;;
65315;SDS011;51920;53.952;10.292;2023-01-19T15:14:48;15.20;;;7.40;;
65315;SDS011;51920;53.952;10.292;2023-01-19T15:17:17;17.17;;;8.13;;
65315;SDS011;51920;53.952;10.292;2023-01-19T15:19:53;19.02;;;7.40;;
65315;SDS011;51920;53.952;10.292;2023-01-19T15:22:20;18.40;;;7.40;;
65315;SDS011;51920;53.952;10.292;2023-01-19T15:24:49;17.38;;;7.60;;
65315;SDS011;51920;53.952;10.292;2023-01-19T15:27:14;23.93;;;8.40;;
65315;SDS011;51920;53.952;10.292;2023-01-19T15:29:40;17.38;;;7.82;;
65315;SDS011;51920;53.952;10.292;2023-01-19T15:32:12;20.10;;;8.52;;
65315;SDS011;51920;53.952;10.292;2023-01-19T15:34:38;17.00;;;7.37;;
65315;SDS011;51920;53.952;10.292;2023-01-19T15:37:03;19.40;;;7.63;;
65315;SDS011;51920;53.952;10.292;2023-01-19T15:39:29;19.77;;;8.60;;
65315;SDS011;51920;53.952;10.292;2023-01-19T15:41:54;19.27;;;8.07;;
65315;SDS011;51920;53.952;10.292;2023-01-19T15:44:20;19.13;;;8.23;;
65315;SDS011;51920;53.952;10.292;2023-01-19T15:46:45;19.80;;;8.27;;